createdAt,value
2018-09-08T00:01:23.367Z,3.90
2018-09-08T00:03:31.065Z,4.10
2018-09-08T00:04:35.990Z,3.90
2018-09-08T00:05:48.192Z,3.40
2018-09-08T00:06:38.673Z,5.30
2018-09-08T00:07:52.298Z,4.10
2018-09-08T00:09:01.216Z,4.30
2018-09-08T00:10:09.110Z,3.00
2018-09-08T00:11:15.057Z,3.50
2018-09-08T00:13:24.087Z,3.00
2018-09-08T00:15:27.589Z,4.00
2018-09-08T00:17:42.145Z,3.30
2018-09-08T00:18:43.485Z,3.70
2018-09-08T00:19:53.845Z,4.90
2018-09-08T00:20:55.700Z,4.00
2018-09-08T00:22:11.883Z,3.90
2018-09-08T00:23:08.918Z,3.30
2018-09-08T00:24:12.723Z,7.60
2018-09-08T00:25:24.810Z,3.40
2018-09-08T00:26:23.692Z,4.20
2018-09-08T00:27:27.081Z,5.30
2018-09-08T00:28:44.909Z,3.10
2018-09-08T00:29:47.997Z,3.80
2018-09-08T00:31:51.385Z,4.20
2018-09-08T00:32:57.949Z,5.30
2018-09-08T00:34:00.312Z,5.40
2018-09-08T00:35:07.798Z,4.20
2018-09-08T00:36:19.482Z,4.70
2018-09-08T00:37:25.532Z,3.30
2018-09-08T00:41:39.395Z,3.70
2018-09-08T00:42:51.292Z,2.70
2018-09-08T00:43:52.319Z,4.00
2018-09-08T00:45:05.739Z,4.10
2018-09-08T00:46:01.142Z,5.50
2018-09-08T00:47:10.980Z,3.60
2018-09-08T00:48:12.217Z,5.20
2018-09-08T00:49:24.002Z,3.70
2018-09-08T00:50:35.072Z,4.90
2018-09-08T00:51:37.947Z,3.30
2018-09-08T00:53:36.327Z,3.70
2018-09-08T00:54:51.901Z,2.90
2018-09-08T00:55:48.945Z,4.00
2018-09-08T00:57:03.798Z,4.30
2018-09-08T00:58:06.060Z,3.10
2018-09-08T00:59:07.195Z,4.40
2018-09-08T01:00:16.624Z,3.60
2018-09-08T01:01:24.212Z,3.30
2018-09-08T01:02:36.609Z,3.50
2018-09-08T01:04:41.748Z,3.70
2018-09-08T01:05:50.768Z,3.20
2018-09-08T01:06:53.754Z,3.10
2018-09-08T01:07:54.985Z,4.30
2018-09-08T01:08:57.453Z,3.40
2018-09-08T01:10:08.009Z,3.40
2018-09-08T01:11:13.137Z,3.50
2018-09-08T01:12:19.300Z,3.40
2018-09-08T01:13:22.679Z,3.50
2018-09-08T01:14:30.472Z,3.30
2018-09-08T01:15:37.343Z,3.90
2018-09-08T01:16:41.245Z,4.20
2018-09-08T01:17:55.383Z,4.50
2018-09-08T01:18:53.652Z,3.30
2018-09-08T01:20:01.647Z,3.50
2018-09-08T01:22:14.876Z,4.60
2018-09-08T01:23:09.362Z,3.30
2018-09-08T01:24:22.163Z,3.70
2018-09-08T01:25:25.552Z,3.80
2018-09-08T01:26:29.350Z,3.50
2018-09-08T01:27:36.017Z,4.20
2018-09-08T01:28:36.844Z,3.40
2018-09-08T01:29:46.074Z,5.10
2018-09-08T01:30:59.905Z,5.30
2018-09-08T01:31:55.203Z,5.10
2018-09-08T01:32:59.924Z,4.40
2018-09-08T01:34:26.765Z,4.00
2018-09-08T01:35:11.207Z,4.50
2018-09-08T01:36:28.010Z,3.60
2018-09-08T01:37:26.281Z,4.30
2018-09-08T01:38:32.947Z,4.50
2018-09-08T01:40:34.806Z,3.60
2018-09-08T01:41:49.663Z,3.00
2018-09-08T01:42:54.895Z,3.20
2018-09-08T01:44:03.098Z,4.50
2018-09-08T01:44:59.216Z,3.40
2018-09-08T01:46:08.852Z,4.40
2018-09-08T01:47:14.187Z,3.10
2018-09-08T01:48:22.086Z,3.20
2018-09-08T01:49:20.965Z,7.60
2018-09-08T01:50:29.270Z,3.90
2018-09-08T01:51:37.685Z,4.10
2018-09-08T01:52:46.798Z,5.00
2018-09-08T01:53:44.556Z,3.80
2018-09-08T01:55:04.635Z,4.80
2018-09-08T01:55:57.271Z,4.10
2018-09-08T01:57:05.265Z,3.50
2018-09-08T01:58:11.528Z,4.10
2018-09-08T01:59:13.477Z,5.80
2018-09-08T02:00:19.731Z,3.50
2018-09-08T02:01:13.508Z,4.10
2018-09-08T02:02:34.394Z,3.60
2018-09-08T02:03:35.633Z,5.70
2018-09-08T02:05:52.241Z,4.50
2018-09-08T02:08:04.545Z,3.30
2018-09-08T02:09:10.494Z,3.30
2018-09-08T02:10:13.883Z,5.00
2018-09-08T02:12:20.248Z,4.10
2018-09-08T02:13:23.431Z,4.30
2018-09-08T02:14:30.198Z,4.10
2018-09-08T02:16:40.355Z,3.30
2018-09-08T02:18:54.302Z,6.40
2018-09-08T02:19:59.942Z,5.30
2018-09-08T02:21:10.804Z,4.10
2018-09-08T02:22:11.632Z,4.40
2018-09-08T02:23:32.123Z,3.20
2018-09-08T02:24:17.593Z,3.50
2018-09-08T02:25:32.160Z,3.30
2018-09-08T02:26:28.665Z,4.80
2018-09-08T02:27:40.349Z,4.90
2018-09-08T02:28:36.775Z,4.80
2018-09-08T02:29:52.041Z,4.60
2018-09-08T02:30:55.738Z,4.40
2018-09-08T02:32:06.600Z,4.10
2018-09-08T02:33:09.474Z,6.30
2018-09-08T02:34:17.574Z,4.10
2018-09-08T02:35:17.894Z,4.30
2018-09-08T02:36:29.882Z,4.90
2018-09-08T02:37:26.821Z,6.20
2018-09-08T02:38:27.443Z,5.50
2018-09-08T02:39:33.598Z,3.40
2018-09-08T02:40:37.503Z,5.50
2018-09-08T02:41:47.235Z,3.00
2018-09-08T02:43:00.250Z,4.90
2018-09-08T02:44:03.328Z,4.10
2018-09-08T02:45:14.092Z,6.50
2018-09-08T02:46:05.497Z,4.60
2018-09-08T02:48:23.958Z,3.70
2018-09-08T02:49:32.969Z,3.80
2018-09-08T02:50:37.484Z,5.50
2018-09-08T02:51:49.886Z,4.40
2018-09-08T02:52:42.316Z,3.80
2018-09-08T02:53:50.314Z,5.80
2018-09-08T02:55:56.268Z,3.40
2018-09-08T02:57:06.208Z,3.60
2018-09-08T02:58:15.026Z,3.70
2018-09-08T02:59:13.908Z,4.10
2018-09-08T03:02:43.835Z,4.30
2018-09-08T03:03:33.094Z,5.00
2018-09-08T03:04:41.597Z,3.90
2018-09-08T03:05:51.950Z,4.40
2018-09-08T03:06:51.651Z,5.20
2018-09-08T03:08:07.635Z,5.10
2018-09-08T03:09:04.571Z,5.80
2018-09-08T03:10:12.163Z,3.60
2018-09-08T03:11:16.467Z,5.40
2018-09-08T03:12:33.373Z,4.00
2018-09-08T03:14:44.655Z,5.60
2018-09-08T03:17:55.740Z,5.10
2018-09-08T03:18:51.245Z,4.70
2018-09-08T03:19:49.418Z,5.30
2018-09-08T03:21:16.559Z,4.80
2018-09-08T03:22:23.328Z,5.20
2018-09-08T03:23:26.205Z,4.90
2018-09-08T03:24:20.886Z,4.30
2018-09-08T03:25:28.267Z,4.70
2018-09-08T03:26:34.523Z,4.60
2018-09-08T03:27:41.494Z,5.70
2018-09-08T03:28:42.426Z,5.90
2018-09-08T03:29:54.417Z,5.30
2018-09-08T03:30:54.017Z,5.40
2018-09-08T03:32:07.746Z,4.50
2018-09-08T03:33:09.906Z,4.90
2018-09-08T03:35:27.024Z,4.50
2018-09-08T03:36:20.891Z,3.70
2018-09-08T03:38:45.689Z,4.90
2018-09-08T03:40:50.321Z,6.10
2018-09-08T03:42:54.734Z,6.50
2018-09-08T03:43:56.280Z,5.30
2018-09-08T03:46:06.640Z,3.70
2018-09-08T03:47:27.546Z,5.30
2018-09-08T03:48:26.220Z,4.90
2018-09-08T03:49:37.797Z,6.20
2018-09-08T03:50:43.134Z,6.20
2018-09-08T03:51:39.253Z,3.90
2018-09-08T03:52:54.313Z,5.60
2018-09-08T03:53:58.417Z,6.60
2018-09-08T03:56:24.343Z,7.20
2018-09-08T03:57:03.676Z,7.50
2018-09-08T03:58:19.356Z,4.20
2018-09-08T03:59:18.639Z,5.00
2018-09-08T04:00:33.287Z,5.70
2018-09-08T04:01:34.421Z,4.60
2018-09-08T04:02:56.038Z,4.70
2018-09-08T04:03:50.517Z,6.00
2018-09-08T04:04:44.180Z,7.20
2018-09-08T04:05:53.197Z,5.90
2018-09-08T04:07:08.360Z,6.40
2018-09-08T04:08:03.864Z,6.90
2018-09-08T04:09:12.067Z,6.90
2018-09-08T04:10:20.987Z,5.40
2018-09-08T04:11:27.037Z,5.30
2018-09-08T04:12:27.867Z,5.40
2018-09-08T04:13:34.121Z,5.40
2018-09-08T04:14:40.377Z,8.10
2018-09-08T04:15:49.706Z,8.00
2018-09-08T04:16:59.854Z,6.40
2018-09-08T04:17:51.159Z,5.90
2018-09-08T04:19:00.792Z,5.80
2018-09-08T04:21:09.718Z,5.50
2018-09-08T04:22:12.286Z,5.30
2018-09-08T04:23:41.584Z,7.30
2018-09-08T04:24:22.032Z,7.70
2018-09-08T04:27:38.648Z,6.10
2018-09-08T04:28:53.405Z,7.70
2018-09-08T04:29:58.447Z,5.90
2018-09-08T04:31:01.515Z,7.20
2018-09-08T04:32:01.420Z,6.50
2018-09-08T04:33:06.349Z,8.00
2018-09-08T04:34:21.403Z,5.70
2018-09-08T04:36:35.143Z,8.10
2018-09-08T04:38:31.372Z,5.80
2018-09-08T04:39:47.254Z,6.20
2018-09-08T04:40:44.189Z,5.80
2018-09-08T04:42:01.503Z,5.20
2018-09-08T04:43:02.158Z,7.20
2018-09-08T04:44:12.173Z,7.00
2018-09-08T04:45:14.845Z,5.80
2018-09-08T04:46:23.049Z,7.10
2018-09-08T04:47:23.166Z,6.90
2018-09-08T04:49:34.336Z,6.90
2018-09-08T04:50:42.342Z,8.40
2018-09-08T04:51:51.967Z,7.80
2018-09-08T04:52:50.031Z,7.70
2018-09-08T04:54:07.857Z,6.10
2018-09-08T04:55:04.895Z,7.50
2018-09-08T04:57:03.684Z,7.70
2018-09-08T04:58:21.106Z,6.00
2018-09-08T04:59:27.052Z,6.60
2018-09-08T05:00:27.471Z,9.30
2018-09-08T05:01:28.812Z,6.60
2018-09-08T05:02:45.619Z,8.10
2018-09-08T05:03:35.897Z,6.60
2018-09-08T05:04:43.280Z,8.20
2018-09-08T05:05:59.570Z,7.50
2018-09-08T05:07:11.063Z,6.10
2018-09-08T05:08:10.646Z,5.50
2018-09-08T05:09:23.871Z,8.80
2018-09-08T05:10:21.421Z,5.80
2018-09-08T05:11:20.607Z,6.40
2018-09-08T05:12:36.282Z,6.50
2018-09-08T05:13:34.143Z,6.20
2018-09-08T05:16:58.129Z,8.80
2018-09-08T05:18:04.282Z,7.60
2018-09-08T05:19:05.109Z,7.10
2018-09-08T05:20:18.328Z,7.10
2018-09-08T05:21:23.049Z,7.30
2018-09-08T05:22:20.907Z,8.50
2018-09-08T05:23:22.864Z,7.10
2018-09-08T05:25:35.681Z,7.00
2018-09-08T05:26:47.157Z,6.10
2018-09-08T05:27:36.102Z,9.70
2018-09-08T05:28:50.144Z,9.40
2018-09-08T05:30:01.516Z,7.70
2018-09-08T05:31:04.809Z,8.20
2018-09-08T05:32:11.466Z,7.10
2018-09-08T05:33:20.691Z,7.70
2018-09-08T05:34:15.681Z,8.00
2018-09-08T05:35:30.440Z,5.90
2018-09-08T05:36:34.441Z,8.50
2018-09-08T05:39:48.294Z,9.10
2018-09-08T05:40:54.555Z,7.50
2018-09-08T05:43:08.395Z,7.90
2018-09-08T05:44:13.623Z,10.30
2018-09-08T05:45:22.446Z,8.30
2018-09-08T05:46:18.660Z,6.00
2018-09-08T05:47:23.380Z,8.30
2018-09-08T05:48:38.080Z,6.60
2018-09-08T05:49:40.190Z,7.20
2018-09-08T05:50:46.245Z,9.30
2018-09-08T05:51:46.972Z,7.40
2018-09-08T05:55:02.146Z,8.10
2018-09-08T05:56:15.062Z,8.30
2018-09-08T05:59:23.282Z,7.10
2018-09-08T06:01:50.949Z,8.10
2018-09-08T06:03:49.532Z,9.10
2018-09-08T06:04:54.969Z,8.90
2018-09-08T06:06:04.297Z,9.40
2018-09-08T06:07:05.962Z,8.30
2018-09-08T06:08:13.529Z,9.10
2018-09-08T06:09:18.044Z,8.80
2018-09-08T06:10:33.108Z,9.30
2018-09-08T06:11:22.878Z,8.20
2018-09-08T06:12:39.781Z,7.30
2018-09-08T06:13:35.547Z,8.90
2018-09-08T06:14:55.467Z,9.90
2018-09-08T06:15:56.094Z,6.60
2018-09-08T06:17:04.702Z,7.20
2018-09-08T06:17:53.651Z,5.70
2018-09-08T06:19:16.920Z,7.70
2018-09-08T06:20:23.675Z,9.00
2018-09-08T06:21:30.748Z,7.70
2018-09-08T06:22:20.929Z,8.20
2018-09-08T06:23:26.673Z,8.60
2018-09-08T06:25:46.462Z,12.70
2018-09-08T06:26:44.721Z,8.20
2018-09-08T06:27:48.213Z,8.80
2018-09-08T06:28:59.282Z,8.10
2018-09-08T06:29:51.617Z,7.40
2018-09-08T06:31:04.132Z,7.60
2018-09-08T06:32:11.296Z,9.10
2018-09-08T06:33:12.737Z,5.50
2018-09-08T06:34:22.268Z,6.50
2018-09-08T06:35:25.209Z,8.90
2018-09-08T06:36:41.534Z,8.30
2018-09-08T06:37:28.335Z,7.80
2018-09-08T06:38:49.951Z,8.30
2018-09-08T06:39:56.307Z,8.90
2018-09-08T06:41:06.043Z,9.60
2018-09-08T06:42:08.611Z,7.40
2018-09-08T06:43:13.029Z,6.60
2018-09-08T06:44:27.079Z,8.50
2018-09-08T06:46:32.924Z,7.70
2018-09-08T06:48:27.918Z,7.20
2018-09-08T06:49:55.783Z,7.60
2018-09-08T06:50:45.243Z,8.50
2018-09-08T06:51:54.878Z,8.50
2018-09-08T06:53:03.182Z,7.40
2018-09-08T06:54:18.860Z,6.50
2018-09-08T06:56:20.926Z,7.60
2018-09-08T06:57:41.618Z,6.10
2018-09-08T06:58:30.264Z,7.60
2018-09-08T06:59:45.019Z,6.10
2018-09-08T07:00:34.579Z,6.70
2018-09-08T07:01:47.188Z,9.90
2018-09-08T07:02:46.885Z,7.60
2018-09-08T07:04:00.820Z,7.80
2018-09-08T07:04:56.742Z,8.40
2018-09-08T07:05:59.614Z,6.70
2018-09-08T07:07:07.913Z,8.70
2018-09-08T07:08:11.713Z,7.50
2018-09-08T07:09:31.483Z,7.50
2018-09-08T07:10:38.866Z,7.30
2018-09-08T07:11:25.562Z,6.80
2018-09-08T07:12:34.278Z,7.30
2018-09-08T07:14:49.962Z,6.70
2018-09-08T07:15:53.759Z,6.40
2018-09-08T07:17:10.051Z,8.90
2018-09-08T07:18:35.971Z,5.60
2018-09-08T07:20:44.688Z,12.10
2018-09-08T07:21:49.921Z,7.30
2018-09-08T07:22:34.671Z,6.60
2018-09-08T07:23:52.705Z,8.00
2018-09-08T07:25:45.770Z,6.60
2018-09-08T07:26:50.989Z,9.10
2018-09-08T07:27:48.645Z,8.80
2018-09-08T07:29:15.695Z,7.30
2018-09-08T07:30:13.134Z,9.60
2018-09-08T07:32:57.506Z,7.50
2018-09-08T07:33:15.924Z,6.50
2018-09-08T07:35:18.710Z,6.60
2018-09-08T07:36:47.593Z,8.60
2018-09-08T07:38:19.448Z,7.10
2018-09-08T07:42:02.592Z,7.60
2018-09-08T07:42:49.384Z,7.30
2018-09-08T07:44:48.582Z,7.30
2018-09-08T07:45:54.746Z,8.50
2018-09-08T07:46:49.731Z,5.90
2018-09-08T07:48:01.934Z,7.30
2018-09-08T07:49:20.467Z,9.00
2018-09-08T07:50:05.626Z,4.80
2018-09-08T07:51:17.104Z,7.00
2018-09-08T07:53:16.639Z,7.50
2018-09-08T07:54:22.768Z,6.90
2018-09-08T07:55:43.972Z,8.50
2018-09-08T07:56:45.740Z,7.00
2018-09-08T07:59:00.691Z,5.70
2018-09-08T08:00:06.955Z,7.10
2018-09-08T08:01:02.655Z,6.20
2018-09-08T08:02:06.555Z,6.80
2018-09-08T08:03:14.046Z,5.40
2018-09-08T08:04:15.588Z,5.90
2018-09-08T08:05:24.096Z,8.50
2018-09-08T08:07:28.145Z,8.00
2018-09-08T08:08:41.936Z,7.40
2018-09-08T08:11:53.756Z,8.40
2018-09-08T08:13:17.816Z,7.00
2018-09-08T08:14:04.921Z,6.50
2018-09-08T08:15:25.825Z,7.30
2018-09-08T08:16:12.620Z,4.60
2018-09-08T08:17:26.892Z,6.90
2018-09-08T08:18:20.828Z,7.50
2018-09-08T08:19:31.750Z,6.40
2018-09-08T08:20:41.942Z,7.00
2018-09-08T08:21:47.891Z,6.80
2018-09-08T08:22:49.853Z,9.20
2018-09-08T08:23:52.725Z,8.00
2018-09-08T08:25:05.431Z,6.70
2018-09-08T08:26:01.853Z,6.40
2018-09-08T08:27:13.024Z,7.10
2018-09-08T08:28:17.027Z,6.20
2018-09-08T08:29:16.320Z,5.60
2018-09-08T08:30:30.154Z,9.40
2018-09-08T08:31:31.190Z,8.50
2018-09-08T08:32:35.804Z,4.50
2018-09-08T08:33:45.132Z,6.80
2018-09-08T08:34:50.978Z,7.10
2018-09-08T08:35:51.908Z,5.50
2018-09-08T08:38:03.292Z,7.20
2018-09-08T08:39:15.285Z,7.00
2018-09-08T08:40:23.595Z,8.00
2018-09-08T08:41:28.000Z,5.70
2018-09-08T08:42:24.779Z,6.70
2018-09-08T08:43:37.131Z,7.20
2018-09-08T08:44:39.290Z,7.40
2018-09-08T08:45:41.247Z,6.40
2018-09-08T08:46:53.751Z,5.60
2018-09-08T08:47:49.256Z,8.40
2018-09-08T08:48:57.761Z,7.40
2018-09-08T08:50:09.236Z,7.10
2018-09-08T08:51:11.805Z,7.40
2018-09-08T08:53:23.812Z,6.80
2018-09-08T08:56:45.849Z,8.80
2018-09-08T08:58:56.004Z,8.30
2018-09-08T08:59:54.579Z,7.40
2018-09-08T09:01:11.278Z,7.00
2018-09-08T09:02:04.953Z,7.60
2018-09-08T09:03:16.211Z,5.50
2018-09-08T09:04:18.678Z,8.20
2018-09-08T09:05:28.518Z,8.30
2018-09-08T09:06:33.547Z,7.20
2018-09-08T09:07:41.545Z,4.70
2018-09-08T09:09:44.325Z,6.90
2018-09-08T09:10:52.527Z,6.50
2018-09-08T09:11:59.396Z,9.90
2018-09-08T09:13:07.665Z,7.90
2018-09-08T09:14:01.663Z,6.40
2018-09-08T09:15:21.527Z,6.30
2018-09-08T09:16:18.070Z,7.60
2018-09-08T09:18:33.638Z,8.40
2018-09-08T09:19:44.209Z,4.50
2018-09-08T09:20:38.276Z,6.10
2018-09-08T09:22:02.863Z,6.50
2018-09-08T09:23:02.363Z,5.80
2018-09-08T09:23:56.880Z,5.50
2018-09-08T09:26:06.996Z,6.20
2018-09-08T09:27:13.569Z,6.70
2018-09-08T09:28:31.693Z,6.30
2018-09-08T09:29:26.889Z,5.40
2018-09-08T09:30:30.996Z,10.20
2018-09-08T09:31:50.973Z,6.30
2018-09-08T09:32:43.408Z,5.40
2018-09-08T09:33:54.677Z,8.60
2018-09-08T09:36:00.432Z,6.30
2018-09-08T09:37:06.794Z,7.00
2018-09-08T09:38:07.011Z,5.60
2018-09-08T09:39:10.603Z,5.00
2018-09-08T09:42:46.065Z,7.30
2018-09-08T09:43:42.692Z,6.70
2018-09-08T09:44:40.542Z,6.20
2018-09-08T09:47:05.861Z,8.70
2018-09-08T09:48:02.287Z,5.60
2018-09-08T09:49:00.753Z,6.10
2018-09-08T09:50:07.725Z,8.90
2018-09-08T09:51:16.133Z,6.00
2018-09-08T09:53:35.546Z,7.10
2018-09-08T09:54:36.344Z,5.50
2018-09-08T09:55:47.404Z,5.60
2018-09-08T09:56:47.207Z,8.10
2018-09-08T09:57:44.044Z,7.00
2018-09-08T10:00:22.049Z,5.90
2018-09-08T10:01:19.498Z,5.90
2018-09-08T10:02:11.317Z,6.00
2018-09-08T10:03:17.878Z,7.70
2018-09-08T10:04:30.585Z,6.60
2018-09-08T10:05:30.392Z,4.70
2018-09-08T10:06:53.234Z,6.90
2018-09-08T10:08:59.816Z,7.20
2018-09-08T10:10:11.590Z,5.40
2018-09-08T10:11:08.836Z,6.50
2018-09-08T10:11:59.781Z,5.50
2018-09-08T10:13:14.909Z,7.50
2018-09-08T10:14:26.165Z,6.10
2018-09-08T10:15:11.951Z,5.90
2018-09-08T10:18:47.813Z,5.40
2018-09-08T10:19:59.698Z,8.10
2018-09-08T10:20:50.498Z,6.90
2018-09-08T10:23:06.044Z,6.90
2018-09-08T10:24:28.199Z,4.30
2018-09-08T10:25:14.707Z,6.00
2018-09-08T10:26:22.014Z,5.00
2018-09-08T10:27:28.129Z,7.20
2018-09-08T10:30:55.498Z,4.80
2018-09-08T10:31:45.982Z,7.10
2018-09-08T10:32:49.473Z,4.30
2018-09-08T10:34:06.990Z,5.50
2018-09-08T10:35:06.282Z,5.00
2018-09-08T10:36:17.657Z,8.80
2018-09-08T10:37:30.209Z,6.50
2018-09-08T10:38:37.713Z,5.30
2018-09-08T10:39:43.696Z,6.40
2018-09-08T10:41:45.149Z,7.00
2018-09-08T10:42:50.380Z,4.60
2018-09-08T10:46:07.617Z,4.60
2018-09-08T10:47:29.849Z,5.30
2018-09-08T10:48:19.608Z,5.20
2018-09-08T10:49:56.587Z,5.30
2018-09-08T10:51:30.287Z,4.90
2018-09-08T10:52:44.323Z,3.90
2018-09-08T10:53:46.382Z,6.70
2018-09-08T10:54:48.338Z,5.70
2018-09-08T10:56:09.033Z,4.10
2018-09-08T10:57:12.726Z,5.90
2018-09-08T10:58:09.766Z,4.40
2018-09-08T11:00:22.383Z,6.20
2018-09-08T11:01:37.294Z,5.00
2018-09-08T11:02:30.351Z,5.30
2018-09-08T11:03:34.698Z,6.00
2018-09-08T11:04:33.069Z,4.60
2018-09-08T11:05:39.936Z,4.80
2018-09-08T11:06:59.003Z,8.10
2018-09-08T11:07:55.830Z,4.00
2018-09-08T11:08:54.423Z,4.80
2018-09-08T11:10:02.713Z,3.30
2018-09-08T11:11:07.226Z,4.60
2018-09-08T11:12:20.139Z,4.00
2018-09-08T11:13:14.412Z,5.00
2018-09-08T11:14:20.570Z,4.40
2018-09-08T11:16:36.459Z,4.50
2018-09-08T11:17:39.536Z,4.20
2018-09-08T11:18:46.247Z,7.50
2018-09-08T11:22:00.563Z,5.20
2018-09-08T11:24:11.540Z,5.40
2018-09-08T11:25:40.740Z,4.70
2018-09-08T11:26:32.344Z,4.40
2018-09-08T11:27:35.120Z,5.30
2018-09-08T11:28:39.427Z,5.70
2018-09-08T11:29:41.486Z,4.30
2018-09-08T11:30:46.665Z,4.90
2018-09-08T11:31:56.976Z,5.00
2018-09-08T11:33:02.915Z,4.20
2018-09-08T11:34:06.814Z,5.70
2018-09-08T11:35:10.407Z,5.30
2018-09-08T11:36:19.941Z,4.30
2018-09-08T11:37:15.955Z,4.20
2018-09-08T11:38:26.412Z,6.20
2018-09-08T11:39:39.730Z,5.70
2018-09-08T11:41:45.687Z,4.50
2018-09-08T11:43:01.055Z,5.80
2018-09-08T11:44:00.745Z,4.50
2018-09-08T11:44:57.699Z,4.30
2018-09-08T11:46:10.911Z,5.90
2018-09-08T11:47:07.338Z,5.50
2018-09-08T11:48:22.399Z,5.10
2018-09-08T11:50:25.899Z,4.90
2018-09-08T11:51:36.817Z,5.00
2018-09-08T11:52:37.285Z,4.60
2018-09-08T11:53:50.816Z,5.00
2018-09-08T11:54:55.530Z,4.30
2018-09-08T11:55:54.722Z,5.80
2018-09-08T11:56:54.936Z,4.40
2018-09-08T11:58:12.453Z,4.00
2018-09-08T11:59:16.865Z,4.70
2018-09-08T12:02:31.137Z,4.30
2018-09-08T12:03:30.840Z,4.20
2018-09-08T12:04:45.073Z,6.00
2018-09-08T12:05:45.294Z,6.90
2018-09-08T12:06:42.427Z,6.10
2018-09-08T12:08:00.007Z,5.40
2018-09-08T12:08:59.751Z,5.70
2018-09-08T12:10:07.135Z,5.40
2018-09-08T12:11:06.427Z,3.80
2018-09-08T12:12:20.258Z,3.20
2018-09-08T12:13:22.421Z,5.30
2018-09-08T12:14:25.397Z,4.80
2018-09-08T12:15:37.492Z,5.10
2018-09-08T12:17:46.321Z,3.40
2018-09-08T12:18:51.672Z,4.20
2018-09-08T12:19:58.723Z,4.90
2018-09-08T12:20:58.733Z,5.20
2018-09-08T12:22:07.790Z,5.10
2018-09-08T12:24:26.720Z,3.90
2018-09-08T12:25:31.233Z,4.80
2018-09-08T12:26:32.143Z,4.30
2018-09-08T12:27:33.915Z,3.30
2018-09-08T12:28:36.589Z,3.80
2018-09-08T12:31:00.925Z,3.00
2018-09-08T12:32:00.574Z,3.30
2018-09-08T12:33:09.596Z,4.50
2018-09-08T12:34:21.483Z,4.30
2018-09-08T12:36:20.582Z,4.60
2018-09-08T12:37:25.606Z,4.00
2018-09-08T12:39:37.092Z,3.70
2018-09-08T12:40:50.415Z,5.50
2018-09-08T12:41:46.531Z,3.50
2018-09-08T12:42:43.469Z,4.60
2018-09-08T12:44:05.187Z,5.10
2018-09-08T12:45:05.787Z,4.60
2018-09-08T12:46:14.319Z,3.90
2018-09-08T12:47:18.834Z,4.60
2018-09-08T12:48:17.411Z,4.80
2018-09-08T12:49:30.423Z,4.10
2018-09-08T12:50:22.810Z,3.20
2018-09-08T12:51:45.085Z,3.00
2018-09-08T12:53:53.091Z,3.60
2018-09-08T12:54:50.232Z,4.10
2018-09-08T12:56:02.148Z,4.10
2018-09-08T12:59:19.667Z,3.30
2018-09-08T13:01:40.460Z,3.60
2018-09-08T13:02:37.602Z,4.30
2018-09-08T13:03:39.555Z,3.30
2018-09-08T13:05:54.320Z,3.30
2018-09-08T13:07:02.417Z,5.10
2018-09-08T13:08:08.165Z,4.30
2018-09-08T13:08:57.928Z,3.10
2018-09-08T13:11:34.402Z,3.30
2018-09-08T13:12:20.190Z,3.20
2018-09-08T13:13:34.108Z,4.00
2018-09-08T13:14:28.284Z,4.70
2018-09-08T13:15:41.807Z,3.50
2018-09-08T13:16:43.873Z,3.70
2018-09-08T13:18:00.052Z,3.80
2018-09-08T13:19:10.712Z,2.80
2018-09-08T13:20:25.568Z,3.60
2018-09-08T13:21:13.597Z,3.60
2018-09-08T13:22:27.122Z,3.50
2018-09-08T13:23:34.911Z,3.40
2018-09-08T13:24:34.207Z,4.20
2018-09-08T13:25:48.857Z,3.00
2018-09-08T13:27:03.509Z,4.10
2018-09-08T13:27:30.547Z,3.70
2018-09-08T13:28:40.587Z,3.30
2018-09-08T13:31:17.267Z,3.60
2018-09-08T13:32:17.173Z,5.00
2018-09-08T13:33:17.182Z,4.10
2018-09-08T13:34:40.441Z,4.70
2018-09-08T13:35:50.275Z,4.70
2018-09-08T13:38:30.950Z,4.50
2018-09-08T13:38:53.579Z,4.10
2018-09-08T13:41:47.668Z,2.70
2018-09-08T13:42:56.893Z,2.70
2018-09-08T13:43:50.860Z,3.90
2018-09-08T13:44:55.993Z,3.40
2018-09-08T13:46:48.951Z,5.60
2018-09-08T13:47:49.164Z,3.00
2018-09-08T13:49:05.140Z,4.10
2018-09-08T13:50:07.215Z,5.30
2018-09-08T13:52:06.288Z,3.80
2018-09-08T13:53:14.900Z,3.20
2018-09-08T13:54:14.294Z,4.70
2018-09-08T13:55:24.543Z,4.20
2018-09-08T13:57:31.627Z,3.30
2018-09-08T14:00:51.929Z,3.30
2018-09-08T14:02:06.996Z,4.30
2018-09-08T14:02:57.684Z,4.10
2018-09-08T14:04:15.026Z,3.70
2018-09-08T14:05:19.727Z,3.10
2018-09-08T14:06:18.196Z,3.70
2018-09-08T14:07:34.278Z,3.60
2018-09-08T14:09:09.419Z,3.80
2018-09-08T14:09:50.785Z,4.80
2018-09-08T14:11:04.926Z,3.20
2018-09-08T14:12:00.529Z,3.30
2018-09-08T14:14:16.627Z,2.70
2018-09-08T14:15:13.259Z,4.60
2018-09-08T14:16:34.877Z,5.60
2018-09-08T14:17:16.957Z,3.20
2018-09-08T14:18:38.369Z,4.80
2018-09-08T14:19:44.523Z,3.10
2018-09-08T14:21:58.773Z,4.20
2018-09-08T14:22:43.830Z,3.20
2018-09-08T14:23:47.834Z,2.90
2018-09-08T14:24:59.209Z,3.40
2018-09-08T14:26:13.251Z,4.10
2018-09-08T14:27:17.051Z,4.20
2018-09-08T14:30:25.373Z,2.60
2018-09-08T14:31:30.703Z,4.40
2018-09-08T14:32:31.323Z,3.20
2018-09-08T14:33:44.955Z,4.60
2018-09-08T14:34:56.653Z,4.10
2018-09-08T14:35:56.546Z,5.40
2018-09-08T14:38:19.215Z,4.80
2018-09-08T14:39:17.566Z,4.20
2018-09-08T14:40:07.029Z,3.00
2018-09-08T14:41:19.426Z,4.40
2018-09-08T14:43:43.918Z,3.60
2018-09-08T14:44:33.630Z,3.00
2018-09-08T14:45:46.708Z,2.70
2018-09-08T14:46:45.479Z,3.80
2018-09-08T14:47:49.313Z,4.10
2018-09-08T14:48:53.485Z,3.40
2018-09-08T14:49:53.492Z,4.90
2018-09-08T14:50:58.110Z,3.70
2018-09-08T14:52:06.719Z,2.90
2018-09-08T14:53:18.917Z,3.50
2018-09-08T14:54:31.420Z,4.70
2018-09-08T14:55:29.379Z,3.20
2018-09-08T14:56:47.469Z,3.90
2018-09-08T14:57:39.124Z,4.30
2018-09-08T14:58:45.894Z,3.50
2018-09-08T14:59:50.720Z,3.20
2018-09-08T15:01:03.707Z,4.10
2018-09-08T15:02:03.432Z,3.30
2018-09-08T15:03:07.640Z,4.40
2018-09-08T15:04:12.572Z,4.70
2018-09-08T15:05:11.959Z,4.10
2018-09-08T15:06:28.357Z,4.30
2018-09-08T15:07:31.958Z,3.60
2018-09-08T15:08:44.964Z,4.30
2018-09-08T15:09:39.541Z,4.40
2018-09-08T15:10:50.219Z,4.10
2018-09-08T15:11:58.097Z,4.70
2018-09-08T15:12:58.821Z,4.60
2018-09-08T15:14:02.826Z,2.90
2018-09-08T15:16:10.729Z,5.80
2018-09-08T15:19:33.969Z,4.10
2018-09-08T15:20:34.144Z,4.20
2018-09-08T15:21:42.212Z,3.20
2018-09-08T15:22:39.250Z,5.10
2018-09-08T15:23:53.752Z,3.20
2018-09-08T15:24:54.529Z,3.30
2018-09-08T15:26:00.682Z,3.20
2018-09-08T15:27:13.492Z,4.80
2018-09-08T15:28:17.496Z,2.90
2018-09-08T15:29:18.150Z,2.90
2018-09-08T15:31:28.374Z,4.90
2018-09-08T15:32:32.892Z,5.70
2018-09-08T15:33:36.079Z,3.50
2018-09-08T15:34:45.911Z,4.20
2018-09-08T15:35:51.960Z,3.00
2018-09-08T15:36:56.886Z,3.20
2018-09-08T15:39:13.597Z,4.00
2018-09-08T15:40:13.764Z,4.70
2018-09-08T15:41:29.076Z,3.80
2018-09-08T15:42:31.848Z,4.40
2018-09-08T15:44:40.265Z,3.60
2018-09-08T15:45:43.550Z,3.00
2018-09-08T15:46:50.521Z,3.10
2018-09-08T15:48:03.102Z,2.80
2018-09-08T15:48:56.886Z,5.90
2018-09-08T15:50:00.070Z,4.70
2018-09-08T15:51:15.856Z,4.20
2018-09-08T15:53:17.102Z,2.90
2018-09-08T15:55:30.124Z,3.70
2018-09-08T15:56:44.573Z,4.10
2018-09-08T15:57:48.370Z,4.10
2018-09-08T15:58:47.276Z,4.40
2018-09-08T15:59:48.910Z,4.10
2018-09-08T16:01:02.432Z,3.40
2018-09-08T16:02:13.811Z,2.90
2018-09-08T16:03:18.217Z,4.10
2018-09-08T16:04:27.266Z,2.90
2018-09-08T16:05:22.636Z,5.40
2018-09-08T16:06:33.091Z,4.60
2018-09-08T16:07:31.973Z,5.40
2018-09-08T16:08:29.219Z,4.40
2018-09-08T16:09:47.669Z,3.60
2018-09-08T16:11:48.289Z,4.70
2018-09-08T16:13:04.580Z,3.20
2018-09-08T16:15:14.124Z,3.90
2018-09-08T16:16:30.724Z,3.80
2018-09-08T16:17:13.530Z,3.80
2018-09-08T16:19:34.437Z,3.60
2018-09-08T16:20:48.167Z,4.80
2018-09-08T16:21:38.140Z,4.40
2018-09-08T16:22:50.745Z,4.40
2018-09-08T16:23:49.319Z,2.80
2018-09-08T16:24:55.987Z,6.40
2018-09-08T16:26:00.303Z,4.00
2018-09-08T16:28:17.331Z,13.00
2018-09-08T16:29:26.363Z,3.90
2018-09-08T16:31:45.193Z,3.40
2018-09-08T16:34:46.961Z,4.10
2018-09-08T16:36:59.678Z,4.50
2018-09-08T16:38:15.973Z,4.40
2018-09-08T16:39:14.037Z,4.00
2018-09-08T16:40:08.788Z,4.20
2018-09-08T16:41:26.040Z,6.20
2018-09-08T16:43:35.163Z,4.90
2018-09-08T16:44:33.602Z,4.30
2018-09-08T16:45:57.607Z,4.20
2018-09-08T16:48:04.290Z,4.40
2018-09-08T16:49:01.322Z,3.00
2018-09-08T16:51:06.562Z,4.60
2018-09-08T16:52:22.455Z,4.60
2018-09-08T16:53:26.038Z,2.50
2018-09-08T16:54:32.602Z,4.00
2018-09-08T16:55:37.629Z,3.20
2018-09-08T16:56:42.450Z,3.80
2018-09-08T16:57:38.370Z,4.60
2018-09-08T16:59:53.130Z,4.80
2018-09-08T17:01:09.527Z,4.10
2018-09-08T17:02:07.274Z,6.30
2018-09-08T17:03:24.590Z,4.00
2018-09-08T17:06:23.898Z,4.40
2018-09-08T17:07:46.946Z,4.50
2018-09-08T17:08:45.010Z,3.10
2018-09-08T17:09:53.722Z,3.20
2018-09-08T17:10:50.078Z,3.60
2018-09-08T17:11:58.141Z,2.80
2018-09-08T17:15:07.900Z,4.20